sensor_id;sensor_type;location;lat;lon;timestamp;P1;durP1;ratioP1;P2;durP2;ratioP2
7273;SDS011;3678;60.002;17.846;2023-03-01T00:01:33;2.23;;;0.80;;
7273;SDS011;3678;60.002;17.846;2023-03-01T00:04:01;0.90;;;0.80;;
7273;SDS011;3678;60.002;17.846;2023-03-01T00:06:28;4.23;;;1.20;;
7273;SDS011;3678;60.002;17.846;2023-03-01T00:08:55;2.23;;;0.80;;
7273;SDS011;3678;60.002;17.846;2023-03-01T00:11:23;1.13;;;1.00;;
7273;SDS011;3678;60.002;17.846;2023-03-01T00:13:51;0.87;;;0.83;;
7273;SDS011;3678;60.002;17.846;2023-03-01T00:16:20;1.60;;;1.07;;
7273;SDS011;3678;60.002;17.846;2023-03-01T00:18:47;2.10;;;0.90;;
7273;SDS011;3678;60.002;17.846;2023-03-01T00:21:17;2.20;;;1.03;;
7273;SDS011;3678;60.002;17.846;2023-03-01T00:23:44;2.07;;;0.80;;
7273;SDS011;3678;60.002;17.846;2023-03-01T00:26:14;3.43;;;0.90;;
7273;SDS011;3678;60.002;17.846;2023-03-01T00:28:41;1.63;;;1.20;;
7273;SDS011;3678;60.002;17.846;2023-03-01T00:31:10;1.83;;;0.87;;
7273;SDS011;3678;60.002;17.846;2023-03-01T00:33:38;2.50;;;0.80;;
7273;SDS011;3678;60.002;17.846;2023-03-01T00:36:05;1.80;;;0.90;;
7273;SDS011;3678;60.002;17.846;2023-03-01T00:38:35;2.53;;;1.10;;
7273;SDS011;3678;60.002;17.846;2023-03-01T00:41:03;2.30;;;0.93;;
7273;SDS011;3678;60.002;17.846;2023-03-01T00:43:30;2.17;;;0.90;;
7273;SDS011;3678;60.002;17.846;2023-03-01T00:46:01;5.60;;;1.00;;
7273;SDS011;3678;60.002;17.846;2023-03-01T00:48:28;5.10;;;1.00;;
7273;SDS011;3678;60.002;17.846;2023-03-01T00:50:55;1.47;;;0.93;;
7273;SDS011;3678;60.002;17.846;2023-03-01T00:53:22;2.63;;;1.30;;
7273;SDS011;3678;60.002;17.846;2023-03-01T00:55:51;3.03;;;1.20;;
7273;SDS011;3678;60.002;17.846;2023-03-01T00:58:18;2.37;;;1.00;;
7273;SDS011;3678;60.002;17.846;2023-03-01T01:00:45;1.00;;;0.90;;
7273;SDS011;3678;60.002;17.846;2023-03-01T01:03:12;5.27;;;1.23;;
7273;SDS011;3678;60.002;17.846;2023-03-01T01:05:39;3.60;;;1.10;;
7273;SDS011;3678;60.002;17.846;2023-03-01T01:08:07;2.67;;;0.90;;
7273;SDS011;3678;60.002;17.846;2023-03-01T01:10:34;2.60;;;1.13;;
7273;SDS011;3678;60.002;17.846;2023-03-01T01:13:02;1.90;;;1.20;;
7273;SDS011;3678;60.002;17.846;2023-03-01T01:15:32;4.93;;;1.80;;
7273;SDS011;3678;60.002;17.846;2023-03-01T01:18:00;6.33;;;1.30;;
7273;SDS011;3678;60.002;17.846;2023-03-01T01:20:27;4.23;;;1.33;;
7273;SDS011;3678;60.002;17.846;2023-03-01T01:22:54;1.13;;;0.73;;
7273;SDS011;3678;60.002;17.846;2023-03-01T01:25:21;3.23;;;1.00;;
7273;SDS011;3678;60.002;17.846;2023-03-01T01:27:50;3.97;;;1.10;;
7273;SDS011;3678;60.002;17.846;2023-03-01T01:30:18;1.23;;;1.00;;
7273;SDS011;3678;60.002;17.846;2023-03-01T01:32:45;2.93;;;0.90;;
7273;SDS011;3678;60.002;17.846;2023-03-01T01:35:12;1.00;;;0.90;;
7273;SDS011;3678;60.002;17.846;2023-03-01T01:37:40;2.27;;;1.23;;
7273;SDS011;3678;60.002;17.846;2023-03-01T01:40:08;4.73;;;1.23;;
7273;SDS011;3678;60.002;17.846;2023-03-01T01:42:36;1.73;;;1.13;;
7273;SDS011;3678;60.002;17.846;2023-03-01T01:47:50;3.03;;;0.90;;
7273;SDS011;3678;60.002;17.846;2023-03-01T01:50:18;2.63;;;1.10;;
7273;SDS011;3678;60.002;17.846;2023-03-01T01:52:45;1.67;;;0.80;;
7273;SDS011;3678;60.002;17.846;2023-03-01T01:55:14;1.70;;;0.90;;
7273;SDS011;3678;60.002;17.846;2023-03-01T01:57:43;1.43;;;0.97;;
7273;SDS011;3678;60.002;17.846;2023-03-01T02:00:13;3.10;;;1.03;;
7273;SDS011;3678;60.002;17.846;2023-03-01T02:02:40;2.47;;;0.90;;
7273;SDS011;3678;60.002;17.846;2023-03-01T02:05:11;2.30;;;0.80;;
7273;SDS011;3678;60.002;17.846;2023-03-01T02:07:41;1.17;;;0.90;;
7273;SDS011;3678;60.002;17.846;2023-03-01T02:10:09;2.87;;;1.10;;
7273;SDS011;3678;60.002;17.846;2023-03-01T02:12:36;1.80;;;0.70;;
7273;SDS011;3678;60.002;17.846;2023-03-01T02:15:05;1.13;;;0.63;;
7273;SDS011;3678;60.002;17.846;2023-03-01T02:17:32;2.43;;;1.20;;
7273;SDS011;3678;60.002;17.846;2023-03-01T02:20:04;2.30;;;1.03;;
7273;SDS011;3678;60.002;17.846;2023-03-01T02:22:35;1.37;;;1.10;;
7273;SDS011;3678;60.002;17.846;2023-03-01T02:25:06;1.47;;;0.93;;
7273;SDS011;3678;60.002;17.846;2023-03-01T02:27:38;2.13;;;1.00;;
7273;SDS011;3678;60.002;17.846;2023-03-01T02:30:09;2.33;;;0.93;;
7273;SDS011;3678;60.002;17.846;2023-03-01T02:32:38;1.10;;;0.80;;
7273;SDS011;3678;60.002;17.846;2023-03-01T02:35:06;2.60;;;0.80;;
7273;SDS011;3678;60.002;17.846;2023-03-01T02:37:34;4.53;;;1.00;;
7273;SDS011;3678;60.002;17.846;2023-03-01T02:40:02;2.97;;;1.00;;
7273;SDS011;3678;60.002;17.846;2023-03-01T02:42:31;0.80;;;0.80;;
7273;SDS011;3678;60.002;17.846;2023-03-01T02:45:00;3.97;;;1.17;;
7273;SDS011;3678;60.002;17.846;2023-03-01T02:47:29;1.13;;;0.90;;
7273;SDS011;3678;60.002;17.846;2023-03-01T02:49:56;1.60;;;0.80;;
7273;SDS011;3678;60.002;17.846;2023-03-01T02:52:28;2.13;;;1.33;;
7273;SDS011;3678;60.002;17.846;2023-03-01T02:54:58;0.80;;;0.80;;
7273;SDS011;3678;60.002;17.846;2023-03-01T02:57:27;1.10;;;1.00;;
7273;SDS011;3678;60.002;17.846;2023-03-01T02:59:55;1.37;;;0.77;;
7273;SDS011;3678;60.002;17.846;2023-03-01T03:02:24;2.60;;;1.00;;
7273;SDS011;3678;60.002;17.846;2023-03-01T03:05:04;1.73;;;0.70;;
7273;SDS011;3678;60.002;17.846;2023-03-01T03:07:33;1.30;;;1.00;;
7273;SDS011;3678;60.002;17.846;2023-03-01T03:10:00;3.70;;;1.00;;
7273;SDS011;3678;60.002;17.846;2023-03-01T03:12:27;1.40;;;0.80;;
7273;SDS011;3678;60.002;17.846;2023-03-01T03:14:55;3.37;;;1.00;;
7273;SDS011;3678;60.002;17.846;2023-03-01T03:17:22;1.43;;;0.70;;
7273;SDS011;3678;60.002;17.846;2023-03-01T03:19:49;1.50;;;0.80;;
7273;SDS011;3678;60.002;17.846;2023-03-01T03:22:18;0.70;;;0.70;;
7273;SDS011;3678;60.002;17.846;2023-03-01T03:24:45;2.77;;;0.77;;
7273;SDS011;3678;60.002;17.846;2023-03-01T03:27:12;1.23;;;0.80;;
7273;SDS011;3678;60.002;17.846;2023-03-01T03:29:39;1.20;;;0.80;;
7273;SDS011;3678;60.002;17.846;2023-03-01T03:32:06;2.00;;;1.03;;
7273;SDS011;3678;60.002;17.846;2023-03-01T03:34:33;1.13;;;0.80;;
7273;SDS011;3678;60.002;17.846;2023-03-01T03:37:01;2.33;;;1.33;;
7273;SDS011;3678;60.002;17.846;2023-03-01T03:39:29;1.47;;;1.30;;
7273;SDS011;3678;60.002;17.846;2023-03-01T03:42:00;1.93;;;1.27;;
7273;SDS011;3678;60.002;17.846;2023-03-01T03:44:27;2.40;;;0.90;;
7273;SDS011;3678;60.002;17.846;2023-03-01T03:46:54;1.30;;;0.70;;
7273;SDS011;3678;60.002;17.846;2023-03-01T03:49:21;1.03;;;0.70;;
7273;SDS011;3678;60.002;17.846;2023-03-01T03:51:49;1.67;;;0.90;;
7273;SDS011;3678;60.002;17.846;2023-03-01T03:54:16;2.90;;;1.10;;
7273;SDS011;3678;60.002;17.846;2023-03-01T03:56:44;0.73;;;0.73;;
7273;SDS011;3678;60.002;17.846;2023-03-01T03:59:11;1.20;;;0.77;;
7273;SDS011;3678;60.002;17.846;2023-03-01T04:01:39;1.20;;;0.83;;
7273;SDS011;3678;60.002;17.846;2023-03-01T04:04:06;0.90;;;0.80;;
7273;SDS011;3678;60.002;17.846;2023-03-01T04:06:33;1.40;;;1.00;;
7273;SDS011;3678;60.002;17.846;2023-03-01T04:09:00;1.57;;;0.70;;
7273;SDS011;3678;60.002;17.846;2023-03-01T04:11:28;2.13;;;0.80;;
7273;SDS011;3678;60.002;17.846;2023-03-01T04:13:57;1.07;;;0.70;;
7273;SDS011;3678;60.002;17.846;2023-03-01T04:16:25;1.57;;;0.70;;
7273;SDS011;3678;60.002;17.846;2023-03-01T04:18:52;1.50;;;0.80;;
7273;SDS011;3678;60.002;17.846;2023-03-01T04:21:19;3.07;;;0.87;;
7273;SDS011;3678;60.002;17.846;2023-03-01T04:23:47;1.10;;;0.70;;
7273;SDS011;3678;60.002;17.846;2023-03-01T04:26:17;1.10;;;0.70;;
7273;SDS011;3678;60.002;17.846;2023-03-01T04:28:45;0.73;;;0.73;;
7273;SDS011;3678;60.002;17.846;2023-03-01T04:31:16;2.23;;;0.90;;
7273;SDS011;3678;60.002;17.846;2023-03-01T04:33:46;2.33;;;1.03;;
7273;SDS011;3678;60.002;17.846;2023-03-01T04:36:14;0.87;;;0.70;;
7273;SDS011;3678;60.002;17.846;2023-03-01T04:38:42;1.63;;;0.73;;
7273;SDS011;3678;60.002;17.846;2023-03-01T04:41:12;2.17;;;0.90;;
7273;SDS011;3678;60.002;17.846;2023-03-01T04:43:40;1.37;;;1.27;;
7273;SDS011;3678;60.002;17.846;2023-03-01T04:46:08;2.33;;;0.90;;
7273;SDS011;3678;60.002;17.846;2023-03-01T04:48:37;1.40;;;0.63;;
7273;SDS011;3678;60.002;17.846;2023-03-01T04:51:05;1.57;;;0.70;;
7273;SDS011;3678;60.002;17.846;2023-03-01T04:53:33;1.43;;;0.93;;
7273;SDS011;3678;60.002;17.846;2023-03-01T04:56:01;3.70;;;1.03;;
7273;SDS011;3678;60.002;17.846;2023-03-01T04:58:28;0.87;;;0.60;;
7273;SDS011;3678;60.002;17.846;2023-03-01T05:00:56;0.60;;;0.53;;
7273;SDS011;3678;60.002;17.846;2023-03-01T05:03:23;1.37;;;0.70;;
7273;SDS011;3678;60.002;17.846;2023-03-01T05:05:52;2.00;;;0.90;;
7273;SDS011;3678;60.002;17.846;2023-03-01T05:08:19;1.03;;;0.60;;
7273;SDS011;3678;60.002;17.846;2023-03-01T05:10:48;1.17;;;0.70;;
7273;SDS011;3678;60.002;17.846;2023-03-01T05:13:15;1.10;;;0.60;;
7273;SDS011;3678;60.002;17.846;2023-03-01T05:15:46;1.27;;;0.70;;
7273;SDS011;3678;60.002;17.846;2023-03-01T05:18:14;0.70;;;0.67;;
7273;SDS011;3678;60.002;17.846;2023-03-01T05:20:41;1.40;;;0.60;;
7273;SDS011;3678;60.002;17.846;2023-03-01T05:23:11;2.80;;;0.80;;
7273;SDS011;3678;60.002;17.846;2023-03-01T05:25:38;0.63;;;0.60;;
7273;SDS011;3678;60.002;17.846;2023-03-01T05:28:06;1.00;;;0.70;;
7273;SDS011;3678;60.002;17.846;2023-03-01T05:30:34;0.77;;;0.77;;
7273;SDS011;3678;60.002;17.846;2023-03-01T05:33:04;0.80;;;0.60;;
7273;SDS011;3678;60.002;17.846;2023-03-01T05:35:35;1.53;;;0.60;;
7273;SDS011;3678;60.002;17.846;2023-03-01T05:38:02;1.40;;;0.70;;
7273;SDS011;3678;60.002;17.846;2023-03-01T05:40:32;2.60;;;0.80;;
7273;SDS011;3678;60.002;17.846;2023-03-01T05:42:59;1.60;;;0.70;;
7273;SDS011;3678;60.002;17.846;2023-03-01T05:45:30;1.37;;;0.60;;
7273;SDS011;3678;60.002;17.846;2023-03-01T05:47:58;0.63;;;0.63;;
7273;SDS011;3678;60.002;17.846;2023-03-01T05:50:28;0.73;;;0.70;;
7273;SDS011;3678;60.002;17.846;2023-03-01T05:52:59;2.00;;;0.80;;
7273;SDS011;3678;60.002;17.846;2023-03-01T05:55:26;0.70;;;0.70;;
7273;SDS011;3678;60.002;17.846;2023-03-01T05:57:55;0.73;;;0.60;;
7273;SDS011;3678;60.002;17.846;2023-03-01T06:00:24;0.60;;;0.60;;
7273;SDS011;3678;60.002;17.846;2023-03-01T06:02:53;2.20;;;0.90;;
7273;SDS011;3678;60.002;17.846;2023-03-01T06:05:20;2.53;;;0.87;;
7273;SDS011;3678;60.002;17.846;2023-03-01T06:07:47;1.00;;;0.73;;
7273;SDS011;3678;60.002;17.846;2023-03-01T06:10:15;2.03;;;0.80;;
7273;SDS011;3678;60.002;17.846;2023-03-01T06:12:42;2.10;;;0.60;;
7273;SDS011;3678;60.002;17.846;2023-03-01T06:15:12;2.07;;;0.90;;
7273;SDS011;3678;60.002;17.846;2023-03-01T06:17:40;0.87;;;0.70;;
7273;SDS011;3678;60.002;17.846;2023-03-01T06:20:08;1.60;;;0.77;;
7273;SDS011;3678;60.002;17.846;2023-03-01T06:22:36;3.53;;;1.00;;
7273;SDS011;3678;60.002;17.846;2023-03-01T06:25:04;2.50;;;0.80;;
7273;SDS011;3678;60.002;17.846;2023-03-01T06:27:31;0.80;;;0.77;;
7273;SDS011;3678;60.002;17.846;2023-03-01T06:29:58;1.57;;;1.00;;
7273;SDS011;3678;60.002;17.846;2023-03-01T06:32:27;2.53;;;1.00;;
7273;SDS011;3678;60.002;17.846;2023-03-01T06:34:55;0.80;;;0.60;;
7273;SDS011;3678;60.002;17.846;2023-03-01T06:37:23;0.50;;;0.50;;
7273;SDS011;3678;60.002;17.846;2023-03-01T06:39:50;2.77;;;0.70;;
7273;SDS011;3678;60.002;17.846;2023-03-01T06:42:17;0.93;;;0.70;;
7273;SDS011;3678;60.002;17.846;2023-03-01T06:44:45;4.57;;;1.20;;
7273;SDS011;3678;60.002;17.846;2023-03-01T06:47:12;1.17;;;0.80;;
7273;SDS011;3678;60.002;17.846;2023-03-01T06:49:40;1.57;;;0.63;;
7273;SDS011;3678;60.002;17.846;2023-03-01T06:52:08;2.73;;;0.87;;
7273;SDS011;3678;60.002;17.846;2023-03-01T06:54:35;1.63;;;0.70;;
7273;SDS011;3678;60.002;17.846;2023-03-01T06:57:02;1.57;;;0.70;;
7273;SDS011;3678;60.002;17.846;2023-03-01T06:59:29;0.60;;;0.60;;
7273;SDS011;3678;60.002;17.846;2023-03-01T07:01:56;1.80;;;0.90;;
7273;SDS011;3678;60.002;17.846;2023-03-01T07:04:23;1.70;;;0.80;;
7273;SDS011;3678;60.002;17.846;2023-03-01T07:06:54;1.60;;;0.90;;
7273;SDS011;3678;60.002;17.846;2023-03-01T07:09:22;1.50;;;1.00;;
7273;SDS011;3678;60.002;17.846;2023-03-01T07:11:49;1.10;;;0.80;;
7273;SDS011;3678;60.002;17.846;2023-03-01T07:14:16;2.83;;;1.10;;
7273;SDS011;3678;60.002;17.846;2023-03-01T07:16:44;0.70;;;0.63;;
7273;SDS011;3678;60.002;17.846;2023-03-01T07:19:11;0.80;;;0.80;;
7273;SDS011;3678;60.002;17.846;2023-03-01T07:21:39;1.07;;;0.60;;
7273;SDS011;3678;60.002;17.846;2023-03-01T07:24:08;1.37;;;0.80;;
7273;SDS011;3678;60.002;17.846;2023-03-01T07:26:38;1.07;;;0.80;;
7273;SDS011;3678;60.002;17.846;2023-03-01T07:29:06;1.80;;;0.80;;
7273;SDS011;3678;60.002;17.846;2023-03-01T07:31:33;1.47;;;0.80;;
7273;SDS011;3678;60.002;17.846;2023-03-01T07:34:00;2.03;;;1.00;;
7273;SDS011;3678;60.002;17.846;2023-03-01T07:36:28;2.60;;;0.73;;
7273;SDS011;3678;60.002;17.846;2023-03-01T07:38:55;0.87;;;0.70;;
7273;SDS011;3678;60.002;17.846;2023-03-01T07:41:24;0.97;;;0.70;;
7273;SDS011;3678;60.002;17.846;2023-03-01T07:43:51;0.93;;;0.60;;
7273;SDS011;3678;60.002;17.846;2023-03-01T07:46:18;1.17;;;0.60;;
7273;SDS011;3678;60.002;17.846;2023-03-01T07:48:45;1.93;;;0.70;;
7273;SDS011;3678;60.002;17.846;2023-03-01T07:51:13;2.03;;;0.63;;
7273;SDS011;3678;60.002;17.846;2023-03-01T07:53:40;1.30;;;0.70;;
7273;SDS011;3678;60.002;17.846;2023-03-01T07:56:08;1.27;;;0.90;;
7273;SDS011;3678;60.002;17.846;2023-03-01T07:58:37;0.60;;;0.60;;
7273;SDS011;3678;60.002;17.846;2023-03-01T08:01:05;0.73;;;0.67;;
7273;SDS011;3678;60.002;17.846;2023-03-01T08:03:35;1.47;;;0.70;;
7273;SDS011;3678;60.002;17.846;2023-03-01T08:06:03;0.60;;;0.60;;
7273;SDS011;3678;60.002;17.846;2023-03-01T08:08:30;2.20;;;0.77;;
7273;SDS011;3678;60.002;17.846;2023-03-01T08:10:57;1.30;;;0.83;;
7273;SDS011;3678;60.002;17.846;2023-03-01T08:13:25;0.60;;;0.60;;
7273;SDS011;3678;60.002;17.846;2023-03-01T08:15:54;1.07;;;0.73;;
7273;SDS011;3678;60.002;17.846;2023-03-01T08:18:21;0.70;;;0.60;;
7273;SDS011;3678;60.002;17.846;2023-03-01T08:20:48;0.77;;;0.60;;
7273;SDS011;3678;60.002;17.846;2023-03-01T08:23:15;1.10;;;0.63;;
7273;SDS011;3678;60.002;17.846;2023-03-01T08:25:42;0.83;;;0.70;;
7273;SDS011;3678;60.002;17.846;2023-03-01T08:28:09;1.80;;;0.50;;
7273;SDS011;3678;60.002;17.846;2023-03-01T08:30:37;0.63;;;0.50;;
7273;SDS011;3678;60.002;17.846;2023-03-01T08:33:05;0.80;;;0.50;;
7273;SDS011;3678;60.002;17.846;2023-03-01T08:35:32;0.70;;;0.70;;
7273;SDS011;3678;60.002;17.846;2023-03-01T08:37:59;1.90;;;0.70;;
7273;SDS011;3678;60.002;17.846;2023-03-01T08:40:27;2.27;;;0.60;;
7273;SDS011;3678;60.002;17.846;2023-03-01T08:42:54;0.70;;;0.60;;
7273;SDS011;3678;60.002;17.846;2023-03-01T08:45:21;0.60;;;0.60;;
7273;SDS011;3678;60.002;17.846;2023-03-01T08:47:51;0.50;;;0.50;;
7273;SDS011;3678;60.002;17.846;2023-03-01T08:50:20;0.80;;;0.60;;
7273;SDS011;3678;60.002;17.846;2023-03-01T08:52:49;1.47;;;0.60;;
7273;SDS011;3678;60.002;17.846;2023-03-01T08:55:16;0.60;;;0.60;;
7273;SDS011;3678;60.002;17.846;2023-03-01T08:57:43;1.50;;;0.60;;
7273;SDS011;3678;60.002;17.846;2023-03-01T09:00:11;0.70;;;0.60;;
7273;SDS011;3678;60.002;17.846;2023-03-01T09:02:39;0.80;;;0.60;;
7273;SDS011;3678;60.002;17.846;2023-03-01T09:05:07;0.60;;;0.50;;
7273;SDS011;3678;60.002;17.846;2023-03-01T09:07:36;0.57;;;0.50;;
7273;SDS011;3678;60.002;17.846;2023-03-01T09:10:03;0.60;;;0.57;;
7273;SDS011;3678;60.002;17.846;2023-03-01T09:12:30;0.60;;;0.60;;
7273;SDS011;3678;60.002;17.846;2023-03-01T09:15:06;0.80;;;0.60;;
7273;SDS011;3678;60.002;17.846;2023-03-01T09:17:33;0.60;;;0.60;;
7273;SDS011;3678;60.002;17.846;2023-03-01T09:20:00;2.43;;;0.60;;
7273;SDS011;3678;60.002;17.846;2023-03-01T09:22:30;0.60;;;0.60;;
7273;SDS011;3678;60.002;17.846;2023-03-01T09:24:59;0.50;;;0.50;;
7273;SDS011;3678;60.002;17.846;2023-03-01T09:27:27;2.23;;;0.90;;
7273;SDS011;3678;60.002;17.846;2023-03-01T09:29:55;0.63;;;0.50;;
7273;SDS011;3678;60.002;17.846;2023-03-01T09:32:22;1.37;;;0.60;;
7273;SDS011;3678;60.002;17.846;2023-03-01T09:34:49;0.50;;;0.50;;
7273;SDS011;3678;60.002;17.846;2023-03-01T09:37:32;1.27;;;0.53;;
7273;SDS011;3678;60.002;17.846;2023-03-01T09:40:01;3.13;;;0.50;;
7273;SDS011;3678;60.002;17.846;2023-03-01T09:42:29;1.73;;;0.70;;
7273;SDS011;3678;60.002;17.846;2023-03-01T09:44:59;1.30;;;0.60;;
7273;SDS011;3678;60.002;17.846;2023-03-01T09:47:27;0.50;;;0.50;;
7273;SDS011;3678;60.002;17.846;2023-03-01T09:49:58;0.50;;;0.50;;
7273;SDS011;3678;60.002;17.846;2023-03-01T09:52:29;0.60;;;0.60;;
7273;SDS011;3678;60.002;17.846;2023-03-01T09:55:01;0.50;;;0.50;;
7273;SDS011;3678;60.002;17.846;2023-03-01T09:57:30;0.50;;;0.50;;
7273;SDS011;3678;60.002;17.846;2023-03-01T10:02:45;2.27;;;0.60;;
7273;SDS011;3678;60.002;17.846;2023-03-01T10:05:19;1.17;;;0.50;;
7273;SDS011;3678;60.002;17.846;2023-03-01T10:07:53;0.70;;;0.50;;
7273;SDS011;3678;60.002;17.846;2023-03-01T10:10:26;0.50;;;0.50;;
7273;SDS011;3678;60.002;17.846;2023-03-01T10:12:54;0.50;;;0.50;;
7273;SDS011;3678;60.002;17.846;2023-03-01T10:15:25;0.50;;;0.50;;
7273;SDS011;3678;60.002;17.846;2023-03-01T10:17:57;0.77;;;0.60;;
7273;SDS011;3678;60.002;17.846;2023-03-01T10:20:30;0.50;;;0.50;;
7273;SDS011;3678;60.002;17.846;2023-03-01T10:23:00;0.57;;;0.53;;
7273;SDS011;3678;60.002;17.846;2023-03-01T10:25:42;0.50;;;0.50;;
7273;SDS011;3678;60.002;17.846;2023-03-01T10:28:14;1.13;;;0.60;;
7273;SDS011;3678;60.002;17.846;2023-03-01T10:30:42;0.47;;;0.47;;
7273;SDS011;3678;60.002;17.846;2023-03-01T10:33:13;1.90;;;1.80;;
7273;SDS011;3678;60.002;17.846;2023-03-01T10:35:42;0.67;;;0.60;;
7273;SDS011;3678;60.002;17.846;2023-03-01T10:38:10;0.53;;;0.53;;
7273;SDS011;3678;60.002;17.846;2023-03-01T10:40:50;1.27;;;0.60;;
7273;SDS011;3678;60.002;17.846;2023-03-01T10:43:17;0.60;;;0.50;;
7273;SDS011;3678;60.002;17.846;2023-03-01T10:45:44;0.47;;;0.47;;
7273;SDS011;3678;60.002;17.846;2023-03-01T10:48:12;0.70;;;0.60;;
7273;SDS011;3678;60.002;17.846;2023-03-01T10:50:40;1.40;;;0.50;;
7273;SDS011;3678;60.002;17.846;2023-03-01T10:53:17;0.40;;;0.40;;
7273;SDS011;3678;60.002;17.846;2023-03-01T10:55:48;0.87;;;0.87;;
7273;SDS011;3678;60.002;17.846;2023-03-01T10:58:23;0.50;;;0.50;;
7273;SDS011;3678;60.002;17.846;2023-03-01T11:00:50;0.50;;;0.50;;
7273;SDS011;3678;60.002;17.846;2023-03-01T11:03:19;1.50;;;0.60;;
7273;SDS011;3678;60.002;17.846;2023-03-01T11:05:52;1.03;;;0.60;;
7273;SDS011;3678;60.002;17.846;2023-03-01T11:11:23;0.53;;;0.53;;
7273;SDS011;3678;60.002;17.846;2023-03-01T11:13:52;0.50;;;0.50;;
7273;SDS011;3678;60.002;17.846;2023-03-01T11:16:24;0.60;;;0.60;;
7273;SDS011;3678;60.002;17.846;2023-03-01T11:18:58;0.50;;;0.50;;
7273;SDS011;3678;60.002;17.846;2023-03-01T11:21:26;0.40;;;0.40;;
7273;SDS011;3678;60.002;17.846;2023-03-01T11:23:55;0.50;;;0.50;;
7273;SDS011;3678;60.002;17.846;2023-03-01T11:26:25;1.10;;;0.50;;
7273;SDS011;3678;60.002;17.846;2023-03-01T11:28:53;1.53;;;0.73;;
7273;SDS011;3678;60.002;17.846;2023-03-01T11:31:23;0.40;;;0.40;;
7273;SDS011;3678;60.002;17.846;2023-03-01T11:33:52;0.53;;;0.50;;
7273;SDS011;3678;60.002;17.846;2023-03-01T11:36:24;0.40;;;0.40;;
7273;SDS011;3678;60.002;17.846;2023-03-01T11:38:53;0.50;;;0.50;;
7273;SDS011;3678;60.002;17.846;2023-03-01T11:41:21;0.47;;;0.47;;
7273;SDS011;3678;60.002;17.846;2023-03-01T11:43:52;0.40;;;0.40;;
7273;SDS011;3678;60.002;17.846;2023-03-01T11:46:34;0.73;;;0.43;;
7273;SDS011;3678;60.002;17.846;2023-03-01T11:51:48;0.50;;;0.50;;
7273;SDS011;3678;60.002;17.846;2023-03-01T11:54:23;0.40;;;0.40;;
7273;SDS011;3678;60.002;17.846;2023-03-01T11:56:53;0.60;;;0.50;;
7273;SDS011;3678;60.002;17.846;2023-03-01T11:59:27;0.50;;;0.50;;
7273;SDS011;3678;60.002;17.846;2023-03-01T12:02:08;0.73;;;0.50;;
7273;SDS011;3678;60.002;17.846;2023-03-01T12:04:57;0.83;;;0.50;;
7273;SDS011;3678;60.002;17.846;2023-03-01T12:07:30;0.50;;;0.50;;
7273;SDS011;3678;60.002;17.846;2023-03-01T12:10:05;0.50;;;0.50;;
7273;SDS011;3678;60.002;17.846;2023-03-01T12:12:36;0.50;;;0.50;;
7273;SDS011;3678;60.002;17.846;2023-03-01T12:15:19;0.70;;;0.50;;
7273;SDS011;3678;60.002;17.846;2023-03-01T12:17:59;1.30;;;0.60;;
7273;SDS011;3678;60.002;17.846;2023-03-01T12:20:32;0.50;;;0.50;;
7273;SDS011;3678;60.002;17.846;2023-03-01T12:23:20;0.60;;;0.60;;
7273;SDS011;3678;60.002;17.846;2023-03-01T12:25:53;0.50;;;0.50;;
7273;SDS011;3678;60.002;17.846;2023-03-01T12:28:29;0.40;;;0.40;;
7273;SDS011;3678;60.002;17.846;2023-03-01T12:31:08;0.57;;;0.50;;
7273;SDS011;3678;60.002;17.846;2023-03-01T12:33:41;0.50;;;0.50;;
7273;SDS011;3678;60.002;17.846;2023-03-01T12:36:19;2.33;;;0.70;;
7273;SDS011;3678;60.002;17.846;2023-03-01T12:38:55;0.50;;;0.50;;
7273;SDS011;3678;60.002;17.846;2023-03-01T12:41:38;1.30;;;0.60;;
7273;SDS011;3678;60.002;17.846;2023-03-01T12:44:13;0.50;;;0.50;;
7273;SDS011;3678;60.002;17.846;2023-03-01T12:46:47;0.57;;;0.50;;
7273;SDS011;3678;60.002;17.846;2023-03-01T12:49:19;0.83;;;0.50;;
7273;SDS011;3678;60.002;17.846;2023-03-01T12:51:50;0.50;;;0.50;;
7273;SDS011;3678;60.002;17.846;2023-03-01T12:54:19;0.50;;;0.50;;
7273;SDS011;3678;60.002;17.846;2023-03-01T12:56:49;0.50;;;0.50;;
7273;SDS011;3678;60.002;17.846;2023-03-01T12:59:18;0.67;;;0.60;;
7273;SDS011;3678;60.002;17.846;2023-03-01T13:01:51;0.50;;;0.50;;
7273;SDS011;3678;60.002;17.846;2023-03-01T13:04:25;0.30;;;0.30;;
7273;SDS011;3678;60.002;17.846;2023-03-01T13:06:55;0.50;;;0.50;;
7273;SDS011;3678;60.002;17.846;2023-03-01T13:09:25;0.77;;;0.50;;
7273;SDS011;3678;60.002;17.846;2023-03-01T13:11:55;0.50;;;0.50;;
7273;SDS011;3678;60.002;17.846;2023-03-01T13:14:35;0.50;;;0.50;;
7273;SDS011;3678;60.002;17.846;2023-03-01T13:17:28;0.50;;;0.50;;
7273;SDS011;3678;60.002;17.846;2023-03-01T13:19:57;0.50;;;0.50;;
7273;SDS011;3678;60.002;17.846;2023-03-01T13:22:25;0.50;;;0.50;;
7273;SDS011;3678;60.002;17.846;2023-03-01T13:25:00;0.40;;;0.40;;
7273;SDS011;3678;60.002;17.846;2023-03-01T13:27:28;0.77;;;0.50;;
7273;SDS011;3678;60.002;17.846;2023-03-01T13:29:55;0.40;;;0.40;;
7273;SDS011;3678;60.002;17.846;2023-03-01T13:32:26;0.70;;;0.50;;
7273;SDS011;3678;60.002;17.846;2023-03-01T13:34:57;1.13;;;0.50;;
7273;SDS011;3678;60.002;17.846;2023-03-01T13:37:26;0.60;;;0.60;;
7273;SDS011;3678;60.002;17.846;2023-03-01T13:39:55;0.40;;;0.40;;
7273;SDS011;3678;60.002;17.846;2023-03-01T13:42:37;0.60;;;0.50;;
7273;SDS011;3678;60.002;17.846;2023-03-01T13:45:12;0.40;;;0.40;;
7273;SDS011;3678;60.002;17.846;2023-03-01T13:47:42;0.43;;;0.43;;
7273;SDS011;3678;60.002;17.846;2023-03-01T13:50:16;0.50;;;0.50;;
7273;SDS011;3678;60.002;17.846;2023-03-01T13:52:45;0.50;;;0.50;;
7273;SDS011;3678;60.002;17.846;2023-03-01T13:55:15;0.97;;;0.60;;
7273;SDS011;3678;60.002;17.846;2023-03-01T13:57:44;1.23;;;0.50;;
7273;SDS011;3678;60.002;17.846;2023-03-01T14:00:24;0.50;;;0.50;;
7273;SDS011;3678;60.002;17.846;2023-03-01T14:03:00;0.47;;;0.47;;
7273;SDS011;3678;60.002;17.846;2023-03-01T14:05:28;0.40;;;0.40;;
7273;SDS011;3678;60.002;17.846;2023-03-01T14:07:56;0.50;;;0.50;;
7273;SDS011;3678;60.002;17.846;2023-03-01T14:10:24;1.10;;;0.50;;
7273;SDS011;3678;60.002;17.846;2023-03-01T14:12:53;0.50;;;0.50;;
7273;SDS011;3678;60.002;17.846;2023-03-01T14:15:22;0.50;;;0.50;;
7273;SDS011;3678;60.002;17.846;2023-03-01T14:17:55;1.20;;;0.80;;
7273;SDS011;3678;60.002;17.846;2023-03-01T14:20:27;0.83;;;0.50;;
7273;SDS011;3678;60.002;17.846;2023-03-01T14:22:57;1.27;;;0.60;;
7273;SDS011;3678;60.002;17.846;2023-03-01T14:25:26;0.50;;;0.50;;
7273;SDS011;3678;60.002;17.846;2023-03-01T14:27:56;1.47;;;0.50;;
7273;SDS011;3678;60.002;17.846;2023-03-01T14:30:24;0.40;;;0.40;;
7273;SDS011;3678;60.002;17.846;2023-03-01T14:32:52;1.50;;;0.60;;
7273;SDS011;3678;60.002;17.846;2023-03-01T14:35:21;1.07;;;0.50;;
7273;SDS011;3678;60.002;17.846;2023-03-01T14:37:50;0.80;;;0.50;;
7273;SDS011;3678;60.002;17.846;2023-03-01T14:40:22;0.87;;;0.50;;
7273;SDS011;3678;60.002;17.846;2023-03-01T14:42:49;1.33;;;0.50;;
7273;SDS011;3678;60.002;17.846;2023-03-01T14:45:17;0.83;;;0.50;;
7273;SDS011;3678;60.002;17.846;2023-03-01T14:47:45;1.27;;;0.60;;
7273;SDS011;3678;60.002;17.846;2023-03-01T14:50:17;0.50;;;0.50;;
7273;SDS011;3678;60.002;17.846;2023-03-01T14:52:46;0.93;;;0.50;;
7273;SDS011;3678;60.002;17.846;2023-03-01T14:55:17;0.70;;;0.50;;
7273;SDS011;3678;60.002;17.846;2023-03-01T14:57:46;0.50;;;0.50;;
7273;SDS011;3678;60.002;17.846;2023-03-01T15:00:16;0.53;;;0.53;;
7273;SDS011;3678;60.002;17.846;2023-03-01T15:02:44;0.50;;;0.50;;
7273;SDS011;3678;60.002;17.846;2023-03-01T15:05:13;0.50;;;0.50;;
7273;SDS011;3678;60.002;17.846;2023-03-01T15:07:41;0.50;;;0.50;;
7273;SDS011;3678;60.002;17.846;2023-03-01T15:10:16;1.07;;;0.60;;
7273;SDS011;3678;60.002;17.846;2023-03-01T15:12:45;0.50;;;0.50;;
7273;SDS011;3678;60.002;17.846;2023-03-01T15:15:20;1.13;;;0.50;;
7273;SDS011;3678;60.002;17.846;2023-03-01T15:17:50;0.50;;;0.50;;
7273;SDS011;3678;60.002;17.846;2023-03-01T15:20:20;1.83;;;0.60;;
7273;SDS011;3678;60.002;17.846;2023-03-01T15:22:50;0.57;;;0.50;;
7273;SDS011;3678;60.002;17.846;2023-03-01T15:25:18;0.60;;;0.60;;